ESH weather

Shoreham Airport
Brighton, England, United Kingdom

Public forecast

Using degrees Celsius for public forecast. Weather courtesy of forecast.io.

METAR (pilot weather report)

Retrieved 2019/03/23 13:20 UTC (50 minutes ago):

EGKA 231320Z 03008KT 9999 SCT022 BKN040 12/08 Q1031

TAF (pilot weather forecast)

Forecast is more than 12 hours old.

Retrieved 2016/03/02 12:00 UTC (3 years ago):

TAF EGKA 021104Z 0212/0221 25015G25KT 9999 SCT020 TEMPO 0212/0216 25025G38KT 5000 SHRA BKN012CB PROB30 TEMPO 0212/0215 2500 +SHGS +SHRASN TEMPO 0216/0221 29025G35KT TEMPO 0218/0221 BKN014